sensor_id;sensor_type;location;lat;lon;timestamp;pressure;altitude;pressure_sealevel;temperature;humidity
20630;BME280;17386;43.846;25.950;2023-06-14T00:00:37;100938.03;;;20.26;84.56
20630;BME280;17386;43.846;25.950;2023-06-14T00:03:06;100949.56;;;20.28;84.80
20630;BME280;17386;43.846;25.950;2023-06-14T00:05:33;100953.13;;;20.28;84.79
20630;BME280;17386;43.846;25.950;2023-06-14T00:08:03;100951.28;;;20.29;84.95
20630;BME280;17386;43.846;25.950;2023-06-14T00:10:32;100942.59;;;20.25;84.95
20630;BME280;17386;43.846;25.950;2023-06-14T00:13:00;100945.28;;;20.25;85.19
20630;BME280;17386;43.846;25.950;2023-06-14T00:15:26;100945.47;;;20.22;85.34
20630;BME280;17386;43.846;25.950;2023-06-14T00:17:51;100946.91;;;20.15;85.71
20630;BME280;17386;43.846;25.950;2023-06-14T00:20:17;100950.81;;;20.11;86.30
20630;BME280;17386;43.846;25.950;2023-06-14T00:22:42;100940.03;;;20.11;86.29
20630;BME280;17386;43.846;25.950;2023-06-14T00:25:08;100946.47;;;20.08;86.36
20630;BME280;17386;43.846;25.950;2023-06-14T00:27:33;100943.91;;;20.07;86.74
20630;BME280;17386;43.846;25.950;2023-06-14T00:29:58;100937.41;;;20.09;86.53
20630;BME280;17386;43.846;25.950;2023-06-14T00:32:24;100936.22;;;20.13;86.67
20630;BME280;17386;43.846;25.950;2023-06-14T00:34:51;100938.94;;;20.13;86.34
20630;BME280;17386;43.846;25.950;2023-06-14T00:37:16;100934.63;;;20.11;86.51
20630;BME280;17386;43.846;25.950;2023-06-14T00:39:42;100936.91;;;20.04;86.79
20630;BME280;17386;43.846;25.950;2023-06-14T00:42:07;100929.25;;;19.98;86.96
20630;BME280;17386;43.846;25.950;2023-06-14T00:44:32;100933.38;;;19.91;87.47
20630;BME280;17386;43.846;25.950;2023-06-14T00:46:58;100925.16;;;19.92;87.55
20630;BME280;17386;43.846;25.950;2023-06-14T00:49:24;100923.09;;;19.96;87.52
20630;BME280;17386;43.846;25.950;2023-06-14T00:51:50;100916.09;;;19.93;87.41
20630;BME280;17386;43.846;25.950;2023-06-14T00:54:16;100921.16;;;19.98;87.46
20630;BME280;17386;43.846;25.950;2023-06-14T00:56:43;100915.34;;;19.91;87.67
20630;BME280;17386;43.846;25.950;2023-06-14T00:59:10;100919.34;;;19.86;87.81
20630;BME280;17386;43.846;25.950;2023-06-14T01:01:36;100922.38;;;19.81;87.91
20630;BME280;17386;43.846;25.950;2023-06-14T01:04:02;100920.22;;;19.86;88.04
20630;BME280;17386;43.846;25.950;2023-06-14T01:06:49;100921.81;;;19.76;88.58
20630;BME280;17386;43.846;25.950;2023-06-14T01:12:16;100911.28;;;19.73;88.09
20630;BME280;17386;43.846;25.950;2023-06-14T01:14:47;100931.22;;;19.83;88.07
20630;BME280;17386;43.846;25.950;2023-06-14T01:17:14;100930.44;;;19.81;88.01
20630;BME280;17386;43.846;25.950;2023-06-14T01:19:45;100920.53;;;19.82;87.92
20630;BME280;17386;43.846;25.950;2023-06-14T01:22:11;100923.44;;;19.79;88.08
20630;BME280;17386;43.846;25.950;2023-06-14T01:24:36;100920.88;;;19.77;87.99
20630;BME280;17386;43.846;25.950;2023-06-14T01:27:05;100931.31;;;19.82;87.88
20630;BME280;17386;43.846;25.950;2023-06-14T01:29:32;100932.59;;;19.76;87.85
20630;BME280;17386;43.846;25.950;2023-06-14T01:31:59;100939.94;;;19.74;88.22
20630;BME280;17386;43.846;25.950;2023-06-14T01:34:26;100926.69;;;19.71;88.44
20630;BME280;17386;43.846;25.950;2023-06-14T01:36:52;100938.09;;;19.75;88.73
20630;BME280;17386;43.846;25.950;2023-06-14T01:39:20;100938.66;;;19.67;88.62
20630;BME280;17386;43.846;25.950;2023-06-14T01:41:47;100932.72;;;19.62;88.96
20630;BME280;17386;43.846;25.950;2023-06-14T01:44:14;100952.34;;;19.64;88.95
20630;BME280;17386;43.846;25.950;2023-06-14T01:46:41;100942.56;;;19.63;88.68
20630;BME280;17386;43.846;25.950;2023-06-14T01:49:07;100947.28;;;19.59;89.11
20630;BME280;17386;43.846;25.950;2023-06-14T01:51:33;100935.06;;;19.54;89.17
20630;BME280;17386;43.846;25.950;2023-06-14T01:53:58;100939.91;;;19.49;89.32
20630;BME280;17386;43.846;25.950;2023-06-14T01:56:25;100937.44;;;19.46;89.54
20630;BME280;17386;43.846;25.950;2023-06-14T01:58:51;100944.66;;;19.45;89.73
20630;BME280;17386;43.846;25.950;2023-06-14T02:01:17;100949.38;;;19.41;90.13
20630;BME280;17386;43.846;25.950;2023-06-14T02:03:44;100948.06;;;19.34;90.52
20630;BME280;17386;43.846;25.950;2023-06-14T02:06:10;100949.47;;;19.27;90.86
20630;BME280;17386;43.846;25.950;2023-06-14T02:08:35;100945.91;;;19.27;91.09
20630;BME280;17386;43.846;25.950;2023-06-14T02:11:01;100947.63;;;19.28;91.18
20630;BME280;17386;43.846;25.950;2023-06-14T02:13:26;100947.19;;;19.21;91.28
20630;BME280;17386;43.846;25.950;2023-06-14T02:15:52;100958.19;;;19.18;91.86
20630;BME280;17386;43.846;25.950;2023-06-14T02:18:20;100963.03;;;19.13;92.08
20630;BME280;17386;43.846;25.950;2023-06-14T02:20:46;100958.50;;;19.13;92.09
20630;BME280;17386;43.846;25.950;2023-06-14T02:23:12;100956.47;;;19.17;91.99
20630;BME280;17386;43.846;25.950;2023-06-14T02:25:38;100961.63;;;19.20;91.71
20630;BME280;17386;43.846;25.950;2023-06-14T02:28:05;100960.03;;;19.18;91.69
20630;BME280;17386;43.846;25.950;2023-06-14T02:30:30;100969.94;;;19.17;91.58
20630;BME280;17386;43.846;25.950;2023-06-14T02:32:56;100969.94;;;19.17;91.82
20630;BME280;17386;43.846;25.950;2023-06-14T02:35:22;100951.59;;;19.09;91.59
20630;BME280;17386;43.846;25.950;2023-06-14T02:37:49;100983.09;;;19.22;91.43
20630;BME280;17386;43.846;25.950;2023-06-14T02:40:16;100983.09;;;19.22;91.83
20630;BME280;17386;43.846;25.950;2023-06-14T02:42:41;100984.72;;;19.24;91.70
20630;BME280;17386;43.846;25.950;2023-06-14T02:45:07;100984.59;;;19.26;91.42
20630;BME280;17386;43.846;25.950;2023-06-14T02:47:33;100981.16;;;19.24;91.54
20630;BME280;17386;43.846;25.950;2023-06-14T02:49:58;100988.03;;;19.28;91.54
20630;BME280;17386;43.846;25.950;2023-06-14T02:52:24;100987.19;;;19.27;91.43
20630;BME280;17386;43.846;25.950;2023-06-14T02:54:50;100990.97;;;19.25;91.50
20630;BME280;17386;43.846;25.950;2023-06-14T02:57:16;100991.81;;;19.25;91.28
20630;BME280;17386;43.846;25.950;2023-06-14T02:59:41;100992.69;;;19.26;91.15
20630;BME280;17386;43.846;25.950;2023-06-14T03:02:06;100990.84;;;19.26;91.07
20630;BME280;17386;43.846;25.950;2023-06-14T03:04:32;100992.56;;;19.27;91.00
20630;BME280;17386;43.846;25.950;2023-06-14T03:07:02;100989.34;;;19.22;91.41
20630;BME280;17386;43.846;25.950;2023-06-14T03:09:37;100996.47;;;19.23;91.41
20630;BME280;17386;43.846;25.950;2023-06-14T03:12:03;101000.19;;;19.21;91.53
20630;BME280;17386;43.846;25.950;2023-06-14T03:14:29;101004.44;;;19.25;91.25
20630;BME280;17386;43.846;25.950;2023-06-14T03:16:56;101011.63;;;19.24;91.20
20630;BME280;17386;43.846;25.950;2023-06-14T03:19:22;101014.34;;;19.24;91.43
20630;BME280;17386;43.846;25.950;2023-06-14T03:21:48;101018.13;;;19.22;91.51
20630;BME280;17386;43.846;25.950;2023-06-14T03:24:14;101012.34;;;19.13;91.92
20630;BME280;17386;43.846;25.950;2023-06-14T03:26:41;101015.16;;;19.12;92.30
20630;BME280;17386;43.846;25.950;2023-06-14T03:29:07;101018.41;;;19.17;92.14
20630;BME280;17386;43.846;25.950;2023-06-14T03:31:34;101015.59;;;19.19;91.82
20630;BME280;17386;43.846;25.950;2023-06-14T03:34:03;101025.41;;;19.20;91.69
20630;BME280;17386;43.846;25.950;2023-06-14T03:36:28;101027.91;;;19.23;91.75
20630;BME280;17386;43.846;25.950;2023-06-14T03:38:54;101031.56;;;19.22;91.65
20630;BME280;17386;43.846;25.950;2023-06-14T03:41:20;101028.78;;;19.23;91.51
20630;BME280;17386;43.846;25.950;2023-06-14T03:43:46;101023.28;;;19.25;91.04
20630;BME280;17386;43.846;25.950;2023-06-14T03:46:11;101035.38;;;19.32;90.98
20630;BME280;17386;43.846;25.950;2023-06-14T03:48:36;101038.06;;;19.32;91.14
20630;BME280;17386;43.846;25.950;2023-06-14T03:51:02;101028.88;;;19.34;90.83
20630;BME280;17386;43.846;25.950;2023-06-14T03:53:27;101033.13;;;19.38;90.79
20630;BME280;17386;43.846;25.950;2023-06-14T03:55:54;101026.75;;;19.39;90.81
20630;BME280;17386;43.846;25.950;2023-06-14T03:58:20;101029.16;;;19.44;90.68
20630;BME280;17386;43.846;25.950;2023-06-14T04:00:47;101036.16;;;19.47;90.71
20630;BME280;17386;43.846;25.950;2023-06-14T04:03:12;101018.25;;;19.46;90.33
20630;BME280;17386;43.846;25.950;2023-06-14T04:05:41;101035.53;;;19.56;90.09
20630;BME280;17386;43.846;25.950;2023-06-14T04:08:10;101033.41;;;19.61;89.88
20630;BME280;17386;43.846;25.950;2023-06-14T04:10:35;101033.97;;;19.66;89.61
20630;BME280;17386;43.846;25.950;2023-06-14T04:13:01;101037.50;;;19.66;89.07
20630;BME280;17386;43.846;25.950;2023-06-14T04:15:26;101041.81;;;19.69;89.36
20630;BME280;17386;43.846;25.950;2023-06-14T04:17:53;101030.84;;;19.72;89.25
20630;BME280;17386;43.846;25.950;2023-06-14T04:20:22;101045.72;;;19.78;88.97
20630;BME280;17386;43.846;25.950;2023-06-14T04:22:49;101040.13;;;19.81;89.12
20630;BME280;17386;43.846;25.950;2023-06-14T04:25:15;101045.84;;;19.89;88.67
20630;BME280;17386;43.846;25.950;2023-06-14T04:27:40;101043.25;;;19.87;88.38
20630;BME280;17386;43.846;25.950;2023-06-14T04:30:07;101043.81;;;19.92;88.14
20630;BME280;17386;43.846;25.950;2023-06-14T04:32:32;101053.19;;;20.00;87.81
20630;BME280;17386;43.846;25.950;2023-06-14T04:35:07;101041.97;;;20.06;87.46
20630;BME280;17386;43.846;25.950;2023-06-14T04:37:32;101041.75;;;20.09;87.19
20630;BME280;17386;43.846;25.950;2023-06-14T04:39:58;101045.28;;;20.09;87.52
20630;BME280;17386;43.846;25.950;2023-06-14T04:42:24;101046.69;;;20.15;87.56
20630;BME280;17386;43.846;25.950;2023-06-14T04:44:56;101054.38;;;20.21;87.23
20630;BME280;17386;43.846;25.950;2023-06-14T04:47:22;101061.78;;;20.30;86.88
20630;BME280;17386;43.846;25.950;2023-06-14T04:49:50;101063.19;;;20.36;86.42
20630;BME280;17386;43.846;25.950;2023-06-14T04:52:17;101069.25;;;20.39;86.45
20630;BME280;17386;43.846;25.950;2023-06-14T04:54:46;101062.63;;;20.43;86.30
20630;BME280;17386;43.846;25.950;2023-06-14T04:57:11;101065.47;;;20.55;85.99
20630;BME280;17386;43.846;25.950;2023-06-14T04:59:43;101067.50;;;20.64;85.34
20630;BME280;17386;43.846;25.950;2023-06-14T05:02:10;101070.97;;;20.66;84.75
20630;BME280;17386;43.846;25.950;2023-06-14T05:04:35;101066.50;;;20.65;84.48
20630;BME280;17386;43.846;25.950;2023-06-14T05:07:09;101062.75;;;20.67;84.71
20630;BME280;17386;43.846;25.950;2023-06-14T05:09:37;101062.31;;;20.73;84.86
20630;BME280;17386;43.846;25.950;2023-06-14T05:12:03;101068.66;;;20.72;84.56
20630;BME280;17386;43.846;25.950;2023-06-14T05:14:29;101055.69;;;20.77;84.57
20630;BME280;17386;43.846;25.950;2023-06-14T05:16:54;101057.41;;;20.79;83.78
20630;BME280;17386;43.846;25.950;2023-06-14T05:19:20;101059.66;;;20.85;83.86
20630;BME280;17386;43.846;25.950;2023-06-14T05:21:47;101065.34;;;20.93;84.00
20630;BME280;17386;43.846;25.950;2023-06-14T05:24:13;101053.38;;;20.97;83.52
20630;BME280;17386;43.846;25.950;2023-06-14T05:26:38;101066.09;;;21.08;83.11
20630;BME280;17386;43.846;25.950;2023-06-14T05:29:04;101068.22;;;21.15;82.55
20630;BME280;17386;43.846;25.950;2023-06-14T05:31:29;101070.25;;;21.12;82.75
20630;BME280;17386;43.846;25.950;2023-06-14T05:33:55;101070.91;;;21.15;82.51
20630;BME280;17386;43.846;25.950;2023-06-14T05:36:20;101081.03;;;21.24;82.35
20630;BME280;17386;43.846;25.950;2023-06-14T05:38:48;101086.00;;;21.30;82.16
20630;BME280;17386;43.846;25.950;2023-06-14T05:41:15;101081.84;;;21.38;81.57
20630;BME280;17386;43.846;25.950;2023-06-14T05:43:41;101083.25;;;21.43;81.08
20630;BME280;17386;43.846;25.950;2023-06-14T05:46:06;101089.03;;;21.50;80.72
20630;BME280;17386;43.846;25.950;2023-06-14T05:48:32;101095.69;;;21.57;80.43
20630;BME280;17386;43.846;25.950;2023-06-14T05:50:57;101088.22;;;21.61;80.38
20630;BME280;17386;43.846;25.950;2023-06-14T05:53:22;101095.97;;;21.65;80.78
20630;BME280;17386;43.846;25.950;2023-06-14T05:55:49;101085.81;;;21.69;80.54
20630;BME280;17386;43.846;25.950;2023-06-14T05:58:15;101085.44;;;21.73;80.02
20630;BME280;17386;43.846;25.950;2023-06-14T06:00:40;101096.88;;;21.77;80.02
20630;BME280;17386;43.846;25.950;2023-06-14T06:03:06;101090.16;;;21.82;79.53
20630;BME280;17386;43.846;25.950;2023-06-14T06:05:34;101103.41;;;21.85;79.30
20630;BME280;17386;43.846;25.950;2023-06-14T06:07:59;101090.16;;;21.82;79.59
20630;BME280;17386;43.846;25.950;2023-06-14T06:10:25;101098.00;;;21.85;79.72
20630;BME280;17386;43.846;25.950;2023-06-14T06:12:51;101087.31;;;21.84;80.13
20630;BME280;17386;43.846;25.950;2023-06-14T06:15:17;101095.81;;;21.91;79.72
20630;BME280;17386;43.846;25.950;2023-06-14T06:17:43;101089.81;;;21.98;79.83
20630;BME280;17386;43.846;25.950;2023-06-14T06:20:10;101089.69;;;22.00;80.07
20630;BME280;17386;43.846;25.950;2023-06-14T06:22:37;101086.97;;;22.00;80.04
20630;BME280;17386;43.846;25.950;2023-06-14T06:25:02;101093.63;;;22.07;79.93
20630;BME280;17386;43.846;25.950;2023-06-14T06:27:28;101069.47;;;21.81;79.82
20630;BME280;17386;43.846;25.950;2023-06-14T06:29:53;101096.69;;;22.02;79.99
20630;BME280;17386;43.846;25.950;2023-06-14T06:32:19;101096.25;;;22.08;79.92
20630;BME280;17386;43.846;25.950;2023-06-14T06:34:44;101099.09;;;22.18;79.64
20630;BME280;17386;43.846;25.950;2023-06-14T06:37:10;101099.34;;;22.26;79.62
20630;BME280;17386;43.846;25.950;2023-06-14T06:39:35;101106.88;;;22.34;79.38
20630;BME280;17386;43.846;25.950;2023-06-14T06:42:01;101101.19;;;22.37;79.35
20630;BME280;17386;43.846;25.950;2023-06-14T06:44:26;101102.19;;;22.47;78.62
20630;BME280;17386;43.846;25.950;2023-06-14T06:46:52;101101.84;;;22.52;78.72
20630;BME280;17386;43.846;25.950;2023-06-14T06:49:17;101088.19;;;22.53;78.27
20630;BME280;17386;43.846;25.950;2023-06-14T06:51:43;101097.03;;;22.66;78.12
20630;BME280;17386;43.846;25.950;2023-06-14T06:54:10;101093.94;;;22.71;77.90
20630;BME280;17386;43.846;25.950;2023-06-14T06:56:36;101099.00;;;22.76;78.03
20630;BME280;17386;43.846;25.950;2023-06-14T06:59:01;101102.78;;;22.84;78.07
20630;BME280;17386;43.846;25.950;2023-06-14T07:01:27;101090.84;;;22.98;77.78
20630;BME280;17386;43.846;25.950;2023-06-14T07:03:54;101098.47;;;23.15;77.41
20630;BME280;17386;43.846;25.950;2023-06-14T07:06:20;101098.31;;;23.28;75.78
20630;BME280;17386;43.846;25.950;2023-06-14T07:08:46;101102.09;;;23.37;75.51
20630;BME280;17386;43.846;25.950;2023-06-14T07:11:13;101098.75;;;23.44;74.65
20630;BME280;17386;43.846;25.950;2023-06-14T07:13:39;101109.22;;;23.49;74.26
20630;BME280;17386;43.846;25.950;2023-06-14T07:16:04;101104.63;;;23.50;74.44
20630;BME280;17386;43.846;25.950;2023-06-14T07:18:30;101096.41;;;23.40;74.11
20630;BME280;17386;43.846;25.950;2023-06-14T07:20:56;101108.66;;;23.34;74.48
20630;BME280;17386;43.846;25.950;2023-06-14T07:23:22;101097.03;;;23.43;74.58
20630;BME280;17386;43.846;25.950;2023-06-14T07:25:48;101095.13;;;23.55;74.65
20630;BME280;17386;43.846;25.950;2023-06-14T07:28:13;101100.41;;;23.68;74.04
20630;BME280;17386;43.846;25.950;2023-06-14T07:30:39;101095.00;;;23.68;73.32
20630;BME280;17386;43.846;25.950;2023-06-14T07:33:05;101093.66;;;23.83;73.02
20630;BME280;17386;43.846;25.950;2023-06-14T07:35:31;101082.63;;;23.96;72.37
20630;BME280;17386;43.846;25.950;2023-06-14T07:37:56;101090.44;;;24.10;71.46
20630;BME280;17386;43.846;25.950;2023-06-14T07:40:22;101091.34;;;24.20;71.07
20630;BME280;17386;43.846;25.950;2023-06-14T07:42:47;101086.69;;;24.32;70.75
20630;BME280;17386;43.846;25.950;2023-06-14T07:45:16;101091.88;;;24.35;68.64
20630;BME280;17386;43.846;25.950;2023-06-14T07:47:41;101083.50;;;24.48;68.88
20630;BME280;17386;43.846;25.950;2023-06-14T07:50:07;101085.84;;;24.62;68.95
20630;BME280;17386;43.846;25.950;2023-06-14T07:52:32;101080.88;;;24.67;68.62
20630;BME280;17386;43.846;25.950;2023-06-14T07:54:58;101085.91;;;24.81;68.14
20630;BME280;17386;43.846;25.950;2023-06-14T07:57:23;101088.69;;;24.91;66.94
20630;BME280;17386;43.846;25.950;2023-06-14T07:59:49;101085.25;;;24.99;66.16
20630;BME280;17386;43.846;25.950;2023-06-14T08:02:15;101088.53;;;24.93;65.63
20630;BME280;17386;43.846;25.950;2023-06-14T08:04:40;101078.47;;;24.83;67.41
20630;BME280;17386;43.846;25.950;2023-06-14T08:07:06;101077.38;;;24.96;68.31
20630;BME280;17386;43.846;25.950;2023-06-14T08:09:32;101080.53;;;25.01;67.16
20630;BME280;17386;43.846;25.950;2023-06-14T08:11:57;101081.31;;;25.13;67.07
20630;BME280;17386;43.846;25.950;2023-06-14T08:14:23;101084.88;;;25.23;66.62
20630;BME280;17386;43.846;25.950;2023-06-14T08:16:48;101091.63;;;25.38;66.67
20630;BME280;17386;43.846;25.950;2023-06-14T08:19:14;101090.06;;;25.45;66.07
20630;BME280;17386;43.846;25.950;2023-06-14T08:21:42;101092.66;;;25.47;65.22
20630;BME280;17386;43.846;25.950;2023-06-14T08:24:10;101088.50;;;25.43;64.87
20630;BME280;17386;43.846;25.950;2023-06-14T08:26:37;101082.91;;;25.44;65.05
20630;BME280;17386;43.846;25.950;2023-06-14T08:29:03;101082.75;;;25.36;65.04
20630;BME280;17386;43.846;25.950;2023-06-14T08:31:28;101089.22;;;25.54;65.00
20630;BME280;17386;43.846;25.950;2023-06-14T08:33:54;101080.63;;;25.78;64.77
20630;BME280;17386;43.846;25.950;2023-06-14T08:36:19;101078.78;;;25.88;63.63
20630;BME280;17386;43.846;25.950;2023-06-14T08:38:45;101079.06;;;25.85;63.83
20630;BME280;17386;43.846;25.950;2023-06-14T08:41:12;101079.94;;;25.76;63.66
20630;BME280;17386;43.846;25.950;2023-06-14T08:43:38;101078.50;;;25.72;63.57
20630;BME280;17386;43.846;25.950;2023-06-14T08:46:06;101069.47;;;25.81;63.53
20630;BME280;17386;43.846;25.950;2023-06-14T08:48:34;101069.56;;;25.99;62.29
20630;BME280;17386;43.846;25.950;2023-06-14T08:51:00;101077.16;;;26.15;61.62
20630;BME280;17386;43.846;25.950;2023-06-14T08:53:30;101073.16;;;26.09;60.95
20630;BME280;17386;43.846;25.950;2023-06-14T08:55:58;101075.97;;;26.17;61.34
20630;BME280;17386;43.846;25.950;2023-06-14T08:58:27;101074.81;;;26.30;61.43
20630;BME280;17386;43.846;25.950;2023-06-14T09:00:54;101070.50;;;26.27;60.75
20630;BME280;17386;43.846;25.950;2023-06-14T09:03:21;101072.25;;;26.18;60.81
20630;BME280;17386;43.846;25.950;2023-06-14T09:05:47;101072.78;;;26.32;59.74
20630;BME280;17386;43.846;25.950;2023-06-14T09:08:13;101075.91;;;26.47;59.72
20630;BME280;17386;43.846;25.950;2023-06-14T09:10:39;101066.47;;;26.68;59.02
20630;BME280;17386;43.846;25.950;2023-06-14T09:13:06;101066.63;;;26.67;57.29
20630;BME280;17386;43.846;25.950;2023-06-14T09:15:31;101069.00;;;26.80;56.85
20630;BME280;17386;43.846;25.950;2023-06-14T09:17:58;101077.13;;;26.89;55.76
20630;BME280;17386;43.846;25.950;2023-06-14T09:20:25;101065.44;;;26.79;54.70
20630;BME280;17386;43.846;25.950;2023-06-14T09:22:51;101074.63;;;26.78;54.81
20630;BME280;17386;43.846;25.950;2023-06-14T09:25:17;101076.25;;;26.71;55.02
20630;BME280;17386;43.846;25.950;2023-06-14T09:27:43;101069.72;;;26.82;54.74
20630;BME280;17386;43.846;25.950;2023-06-14T09:30:09;101071.63;;;26.99;54.20
20630;BME280;17386;43.846;25.950;2023-06-14T09:32:39;101066.53;;;27.14;53.25
20630;BME280;17386;43.846;25.950;2023-06-14T09:35:08;101068.50;;;27.21;52.03
20630;BME280;17386;43.846;25.950;2023-06-14T09:37:34;101070.19;;;27.22;51.93
20630;BME280;17386;43.846;25.950;2023-06-14T09:40:02;101066.94;;;27.19;50.91
20630;BME280;17386;43.846;25.950;2023-06-14T09:42:28;101056.81;;;27.29;50.24
20630;BME280;17386;43.846;25.950;2023-06-14T09:44:56;101064.50;;;27.51;49.70
20630;BME280;17386;43.846;25.950;2023-06-14T09:47:23;101063.25;;;27.64;49.12
20630;BME280;17386;43.846;25.950;2023-06-14T09:49:49;101060.00;;;27.78;48.68
20630;BME280;17386;43.846;25.950;2023-06-14T09:52:16;101052.16;;;28.01;48.40
20630;BME280;17386;43.846;25.950;2023-06-14T09:54:44;101059.91;;;28.14;48.38
20630;BME280;17386;43.846;25.950;2023-06-14T09:57:13;101055.56;;;28.29;48.45
20630;BME280;17386;43.846;25.950;2023-06-14T09:59:48;101046.53;;;28.28;48.09
20630;BME280;17386;43.846;25.950;2023-06-14T10:02:34;101046.44;;;28.38;47.34
20630;BME280;17386;43.846;25.950;2023-06-14T10:05:06;101044.38;;;28.40;47.17
20630;BME280;17386;43.846;25.950;2023-06-14T10:07:40;101048.16;;;28.47;47.04
20630;BME280;17386;43.846;25.950;2023-06-14T10:10:05;101052.91;;;28.37;46.98
20630;BME280;17386;43.846;25.950;2023-06-14T10:12:31;101049.56;;;28.25;47.08
20630;BME280;17386;43.846;25.950;2023-06-14T10:14:57;101042.06;;;28.27;47.39
20630;BME280;17386;43.846;25.950;2023-06-14T10:19:57;101039.19;;;28.97;46.23
20630;BME280;17386;43.846;25.950;2023-06-14T10:22:32;101031.91;;;29.55;44.60
20630;BME280;17386;43.846;25.950;2023-06-14T10:24:59;101037.88;;;30.15;42.76
20630;BME280;17386;43.846;25.950;2023-06-14T10:27:24;101036.44;;;30.36;41.45
20630;BME280;17386;43.846;25.950;2023-06-14T10:32:18;101033.09;;;30.96;40.65
20630;BME280;17386;43.846;25.950;2023-06-14T10:34:44;101028.00;;;31.62;39.19
20630;BME280;17386;43.846;25.950;2023-06-14T10:37:13;101023.66;;;32.05;38.02
20630;BME280;17386;43.846;25.950;2023-06-14T10:39:40;101035.25;;;32.89;37.03
20630;BME280;17386;43.846;25.950;2023-06-14T10:42:06;101032.00;;;33.64;35.64
20630;BME280;17386;43.846;25.950;2023-06-14T10:44:51;101027.88;;;34.03;34.35
20630;BME280;17386;43.846;25.950;2023-06-14T10:49:57;101028.72;;;34.66;33.02
20630;BME280;17386;43.846;25.950;2023-06-14T10:52:25;101028.50;;;34.68;33.34
20630;BME280;17386;43.846;25.950;2023-06-14T10:55:05;101035.06;;;34.67;33.22
20630;BME280;17386;43.846;25.950;2023-06-14T10:57:52;101021.97;;;34.06;34.06
20630;BME280;17386;43.846;25.950;2023-06-14T11:00:25;101026.34;;;33.72;34.03
20630;BME280;17386;43.846;25.950;2023-06-14T11:10:49;101024.09;;;33.83;33.96
20630;BME280;17386;43.846;25.950;2023-06-14T11:13:18;101010.56;;;34.16;33.95
20630;BME280;17386;43.846;25.950;2023-06-14T11:15:45;101007.91;;;33.45;33.61
20630;BME280;17386;43.846;25.950;2023-06-14T11:18:13;101009.22;;;33.77;34.51
20630;BME280;17386;43.846;25.950;2023-06-14T11:20:39;101010.75;;;34.08;33.66
20630;BME280;17386;43.846;25.950;2023-06-14T11:23:04;101007.97;;;33.80;34.31
20630;BME280;17386;43.846;25.950;2023-06-14T11:25:30;101008.97;;;33.08;34.86
20630;BME280;17386;43.846;25.950;2023-06-14T11:27:56;101002.88;;;32.76;35.50
20630;BME280;17386;43.846;25.950;2023-06-14T11:30:22;101015.16;;;32.44;36.19
20630;BME280;17386;43.846;25.950;2023-06-14T11:32:49;101008.06;;;32.35;37.32
20630;BME280;17386;43.846;25.950;2023-06-14T11:35:15;101009.28;;;31.65;37.63
20630;BME280;17386;43.846;25.950;2023-06-14T11:37:41;101007.78;;;31.40;38.82
20630;BME280;17386;43.846;25.950;2023-06-14T11:40:07;101006.91;;;31.39;39.04
20630;BME280;17386;43.846;25.950;2023-06-14T11:42:33;101006.88;;;31.24;39.19
20630;BME280;17386;43.846;25.950;2023-06-14T11:45:00;101001.88;;;30.97;39.81
20630;BME280;17386;43.846;25.950;2023-06-14T11:47:36;101010.25;;;30.64;40.22
20630;BME280;17386;43.846;25.950;2023-06-14T11:50:02;101000.50;;;30.22;41.76
20630;BME280;17386;43.846;25.950;2023-06-14T11:52:28;101010.47;;;29.99;41.85
20630;BME280;17386;43.846;25.950;2023-06-14T11:54:54;100999.88;;;29.88;42.46
20630;BME280;17386;43.846;25.950;2023-06-14T11:57:20;100995.78;;;29.84;42.59
20630;BME280;17386;43.846;25.950;2023-06-14T11:59:46;100988.78;;;29.73;43.62
20630;BME280;17386;43.846;25.950;2023-06-14T12:02:18;100993.06;;;29.67;43.64
20630;BME280;17386;43.846;25.950;2023-06-14T12:04:47;100991.00;;;29.61;43.75
20630;BME280;17386;43.846;25.950;2023-06-14T12:07:14;100991.19;;;29.60;43.85
20630;BME280;17386;43.846;25.950;2023-06-14T12:12:20;100979.03;;;29.46;44.51
20630;BME280;17386;43.846;25.950;2023-06-14T12:14:47;100988.28;;;29.45;44.58
20630;BME280;17386;43.846;25.950;2023-06-14T12:17:12;100974.38;;;29.30;44.78
20630;BME280;17386;43.846;25.950;2023-06-14T12:19:45;100973.22;;;29.41;44.68
20630;BME280;17386;43.846;25.950;2023-06-14T12:22:11;100975.75;;;29.42;44.89
20630;BME280;17386;43.846;25.950;2023-06-14T12:24:37;100967.75;;;29.25;44.81
20630;BME280;17386;43.846;25.950;2023-06-14T12:27:03;100974.75;;;29.35;44.89
20630;BME280;17386;43.846;25.950;2023-06-14T12:29:30;100964.66;;;29.36;44.86
20630;BME280;17386;43.846;25.950;2023-06-14T12:31:55;100968.25;;;29.20;45.49
20630;BME280;17386;43.846;25.950;2023-06-14T12:34:25;100965.47;;;28.96;45.79
20630;BME280;17386;43.846;25.950;2023-06-14T12:36:55;100959.41;;;28.59;46.90
20630;BME280;17386;43.846;25.950;2023-06-14T12:39:21;100965.19;;;28.48;47.33
20630;BME280;17386;43.846;25.950;2023-06-14T12:41:47;100955.44;;;28.54;47.67
20630;BME280;17386;43.846;25.950;2023-06-14T12:44:14;100960.63;;;28.73;47.41
20630;BME280;17386;43.846;25.950;2023-06-14T12:46:40;100956.72;;;28.76;47.42
20630;BME280;17386;43.846;25.950;2023-06-14T12:49:09;100957.72;;;28.75;47.47
20630;BME280;17386;43.846;25.950;2023-06-14T12:51:36;100948.81;;;28.65;46.88
20630;BME280;17386;43.846;25.950;2023-06-14T12:54:01;100960.81;;;28.72;47.19
20630;BME280;17386;43.846;25.950;2023-06-14T12:56:27;100948.84;;;28.73;47.73
20630;BME280;17386;43.846;25.950;2023-06-14T12:58:52;100952.59;;;28.72;47.64